sensor_id;sensor_type;location;lat;lon;timestamp;pressure;altitude;pressure_sealevel;temperature;humidity
69836;BME280;57132;51.972;4.450;2023-02-15T00:01:14;102849.53;;;0.26;100.00
69836;BME280;57132;51.972;4.450;2023-02-15T00:03:39;102850.41;;;0.28;100.00
69836;BME280;57132;51.972;4.450;2023-02-15T00:06:06;102850.41;;;0.31;100.00
69836;BME280;57132;51.972;4.450;2023-02-15T00:08:32;102846.09;;;0.36;100.00
69836;BME280;57132;51.972;4.450;2023-02-15T00:11:07;102840.84;;;0.42;100.00
69836;BME280;57132;51.972;4.450;2023-02-15T00:13:33;102834.72;;;0.49;100.00
69836;BME280;57132;51.972;4.450;2023-02-15T00:16:08;102839.13;;;0.53;100.00
69836;BME280;57132;51.972;4.450;2023-02-15T00:18:43;102835.63;;;0.57;100.00
69836;BME280;57132;51.972;4.450;2023-02-15T00:21:09;102826.88;;;0.61;100.00
69836;BME280;57132;51.972;4.450;2023-02-15T00:23:35;102829.50;;;0.61;100.00
69836;BME280;57132;51.972;4.450;2023-02-15T00:26:10;102826.00;;;0.62;100.00
69836;BME280;57132;51.972;4.450;2023-02-15T00:28:38;102823.38;;;0.62;100.00
69836;BME280;57132;51.972;4.450;2023-02-15T00:31:22;102812.00;;;0.60;100.00
69836;BME280;57132;51.972;4.450;2023-02-15T00:33:47;102814.59;;;0.59;100.00
69836;BME280;57132;51.972;4.450;2023-02-15T00:36:13;102819.00;;;0.60;100.00
69836;BME280;57132;51.972;4.450;2023-02-15T00:38:39;102805.88;;;0.60;100.00
69836;BME280;57132;51.972;4.450;2023-02-15T00:41:07;102808.50;;;0.60;100.00
69836;BME280;57132;51.972;4.450;2023-02-15T00:43:33;102811.09;;;0.58;100.00
69836;BME280;57132;51.972;4.450;2023-02-15T00:45:59;102810.22;;;0.55;100.00
69836;BME280;57132;51.972;4.450;2023-02-15T00:48:24;102812.84;;;0.53;100.00
69836;BME280;57132;51.972;4.450;2023-02-15T00:50:55;102810.22;;;0.53;100.00
69836;BME280;57132;51.972;4.450;2023-02-15T00:53:22;102815.47;;;0.53;100.00
69836;BME280;57132;51.972;4.450;2023-02-15T00:55:48;102808.47;;;0.52;100.00
69836;BME280;57132;51.972;4.450;2023-02-15T00:58:14;102809.34;;;0.48;100.00
69836;BME280;57132;51.972;4.450;2023-02-15T01:00:41;102809.31;;;0.45;100.00
69836;BME280;57132;51.972;4.450;2023-02-15T01:03:07;102802.31;;;0.41;100.00
69836;BME280;57132;51.972;4.450;2023-02-15T01:05:33;102801.41;;;0.39;100.00
69836;BME280;57132;51.972;4.450;2023-02-15T01:07:58;102797.03;;;0.38;100.00
69836;BME280;57132;51.972;4.450;2023-02-15T01:10:25;102800.53;;;0.37;100.00
69836;BME280;57132;51.972;4.450;2023-02-15T01:12:52;102797.91;;;0.38;100.00
69836;BME280;57132;51.972;4.450;2023-02-15T01:15:18;102799.66;;;0.39;100.00
69836;BME280;57132;51.972;4.450;2023-02-15T01:17:43;102796.16;;;0.42;100.00
69836;BME280;57132;51.972;4.450;2023-02-15T01:20:11;102801.44;;;0.45;100.00
69836;BME280;57132;51.972;4.450;2023-02-15T01:22:36;102789.16;;;0.47;100.00
69836;BME280;57132;51.972;4.450;2023-02-15T01:25:02;102795.28;;;0.47;100.00
69836;BME280;57132;51.972;4.450;2023-02-15T01:27:29;102797.06;;;0.48;100.00
69836;BME280;57132;51.972;4.450;2023-02-15T01:29:58;102793.56;;;0.51;100.00
69836;BME280;57132;51.972;4.450;2023-02-15T01:32:23;102784.81;;;0.52;100.00
69836;BME280;57132;51.972;4.450;2023-02-15T01:34:48;102784.81;;;0.54;100.00
69836;BME280;57132;51.972;4.450;2023-02-15T01:37:14;102784.81;;;0.51;100.00
69836;BME280;57132;51.972;4.450;2023-02-15T01:39:39;102785.66;;;0.43;100.00
69836;BME280;57132;51.972;4.450;2023-02-15T01:42:09;102776.91;;;0.38;100.00
69836;BME280;57132;51.972;4.450;2023-02-15T01:50:10;102770.75;;;0.26;100.00
69836;BME280;57132;51.972;4.450;2023-02-15T01:52:42;102768.09;;;0.19;100.00
69836;BME280;57132;51.972;4.450;2023-02-15T01:55:11;102763.69;;;0.11;100.00
69836;BME280;57132;51.972;4.450;2023-02-15T01:57:38;102763.66;;;0.03;100.00
69836;BME280;57132;51.972;4.450;2023-02-15T02:00:04;102767.13;;;-0.04;100.00
69836;BME280;57132;51.972;4.450;2023-02-15T02:02:32;102758.38;;;-0.06;100.00
69836;BME280;57132;51.972;4.450;2023-02-15T02:05:00;102754.88;;;-0.05;100.00
69836;BME280;57132;51.972;4.450;2023-02-15T02:07:33;102757.50;;;-0.07;100.00
69836;BME280;57132;51.972;4.450;2023-02-15T02:09:59;102754.88;;;-0.07;100.00
69836;BME280;57132;51.972;4.450;2023-02-15T02:12:26;102753.13;;;-0.06;100.00
69836;BME280;57132;51.972;4.450;2023-02-15T02:14:52;102745.25;;;-0.05;100.00
69836;BME280;57132;51.972;4.450;2023-02-15T02:17:39;102740.00;;;-0.02;100.00
69836;BME280;57132;51.972;4.450;2023-02-15T02:20:35;102743.53;;;0.01;100.00
69836;BME280;57132;51.972;4.450;2023-02-15T02:23:35;102737.41;;;0.02;100.00
69836;BME280;57132;51.972;4.450;2023-02-15T02:34:30;102730.41;;;0.01;100.00
69836;BME280;57132;51.972;4.450;2023-02-15T02:37:16;102726.00;;;-0.01;100.00
69836;BME280;57132;51.972;4.450;2023-02-15T02:42:20;102715.50;;;-0.05;100.00
69836;BME280;57132;51.972;4.450;2023-02-15T02:44:50;102713.75;;;-0.08;100.00
69836;BME280;57132;51.972;4.450;2023-02-15T02:47:28;102708.47;;;-0.09;100.00
69836;BME280;57132;51.972;4.450;2023-02-15T02:50:05;102712.88;;;-0.10;100.00
69836;BME280;57132;51.972;4.450;2023-02-15T02:52:44;102708.47;;;-0.09;100.00
69836;BME280;57132;51.972;4.450;2023-02-15T02:57:54;102709.38;;;-0.07;100.00
69836;BME280;57132;51.972;4.450;2023-02-15T03:00:21;102708.50;;;-0.05;100.00
69836;BME280;57132;51.972;4.450;2023-02-15T03:02:52;102705.00;;;-0.02;100.00
69836;BME280;57132;51.972;4.450;2023-02-15T03:05:22;102703.25;;;-0.02;100.00
69836;BME280;57132;51.972;4.450;2023-02-15T03:07:51;102703.28;;;-0.03;100.00
69836;BME280;57132;51.972;4.450;2023-02-15T03:10:21;102698.88;;;-0.04;100.00
69836;BME280;57132;51.972;4.450;2023-02-15T03:12:48;102698.88;;;-0.06;100.00
69836;BME280;57132;51.972;4.450;2023-02-15T03:15:20;102692.75;;;-0.09;100.00
69836;BME280;57132;51.972;4.450;2023-02-15T03:17:52;102690.97;;;-0.15;100.00
69836;BME280;57132;51.972;4.450;2023-02-15T03:20:31;102687.44;;;-0.20;100.00
69836;BME280;57132;51.972;4.450;2023-02-15T03:23:04;102679.56;;;-0.25;100.00
69836;BME280;57132;51.972;4.450;2023-02-15T03:25:43;102670.81;;;-0.31;100.00
69836;BME280;57132;51.972;4.450;2023-02-15T03:28:14;102679.50;;;-0.37;100.00
69836;BME280;57132;51.972;4.450;2023-02-15T03:30:44;102674.25;;;-0.41;100.00
69836;BME280;57132;51.972;4.450;2023-02-15T03:33:11;102676.84;;;-0.44;100.00
69836;BME280;57132;51.972;4.450;2023-02-15T03:35:50;102677.75;;;-0.47;100.00
69836;BME280;57132;51.972;4.450;2023-02-15T03:38:21;102667.25;;;-0.45;100.00
69836;BME280;57132;51.972;4.450;2023-02-15T03:40:53;102672.47;;;-0.44;100.00
69836;BME280;57132;51.972;4.450;2023-02-15T03:43:44;102666.38;;;-0.40;100.00
69836;BME280;57132;51.972;4.450;2023-02-15T03:46:19;102666.41;;;-0.37;100.00
69836;BME280;57132;51.972;4.450;2023-02-15T03:48:52;102669.91;;;-0.33;100.00
69836;BME280;57132;51.972;4.450;2023-02-15T03:51:21;102663.81;;;-0.31;100.00
69836;BME280;57132;51.972;4.450;2023-02-15T03:54:03;102663.84;;;-0.28;100.00
69836;BME280;57132;51.972;4.450;2023-02-15T03:56:29;102658.59;;;-0.28;100.00
69836;BME280;57132;51.972;4.450;2023-02-15T03:58:55;102651.56;;;-0.29;100.00
69836;BME280;57132;51.972;4.450;2023-02-15T04:01:57;102652.44;;;-0.30;100.00
69836;BME280;57132;51.972;4.450;2023-02-15T04:04:35;102647.16;;;-0.33;100.00
69836;BME280;57132;51.972;4.450;2023-02-15T04:07:02;102637.53;;;-0.37;100.00
69836;BME280;57132;51.972;4.450;2023-02-15T04:09:28;102633.16;;;-0.42;100.00
69836;BME280;57132;51.972;4.450;2023-02-15T04:12:12;102632.28;;;-0.46;100.00
69836;BME280;57132;51.972;4.450;2023-02-15T04:14:37;102632.28;;;-0.47;100.00
69836;BME280;57132;51.972;4.450;2023-02-15T04:17:21;102635.75;;;-0.50;100.00
69836;BME280;57132;51.972;4.450;2023-02-15T04:19:47;102628.75;;;-0.51;100.00
69836;BME280;57132;51.972;4.450;2023-02-15T04:22:30;102634.88;;;-0.55;100.00
69836;BME280;57132;51.972;4.450;2023-02-15T04:25:14;102639.22;;;-0.57;100.00
69836;BME280;57132;51.972;4.450;2023-02-15T04:27:45;102633.97;;;-0.57;100.00
69836;BME280;57132;51.972;4.450;2023-02-15T04:30:13;102631.34;;;-0.59;100.00
69836;BME280;57132;51.972;4.450;2023-02-15T04:32:39;102633.06;;;-0.61;100.00
69836;BME280;57132;51.972;4.450;2023-02-15T04:35:05;102630.47;;;-0.62;100.00
69836;BME280;57132;51.972;4.450;2023-02-15T04:37:32;102632.19;;;-0.64;100.00
69836;BME280;57132;51.972;4.450;2023-02-15T04:39:57;102626.97;;;-0.63;100.00
69836;BME280;57132;51.972;4.450;2023-02-15T04:42:26;102627.84;;;-0.61;100.00
69836;BME280;57132;51.972;4.450;2023-02-15T04:44:52;102626.97;;;-0.61;100.00
69836;BME280;57132;51.972;4.450;2023-02-15T04:47:18;102622.59;;;-0.62;100.00
69836;BME280;57132;51.972;4.450;2023-02-15T04:49:43;102619.06;;;-0.64;100.00
69836;BME280;57132;51.972;4.450;2023-02-15T04:52:09;102619.09;;;-0.63;100.00
69836;BME280;57132;51.972;4.450;2023-02-15T04:54:34;102623.47;;;-0.63;100.00
69836;BME280;57132;51.972;4.450;2023-02-15T04:57:00;102619.94;;;-0.65;100.00
69836;BME280;57132;51.972;4.450;2023-02-15T04:59:26;102619.94;;;-0.68;100.00
69836;BME280;57132;51.972;4.450;2023-02-15T05:01:51;102619.03;;;-0.72;100.00
69836;BME280;57132;51.972;4.450;2023-02-15T05:04:16;102620.75;;;-0.76;100.00
69836;BME280;57132;51.972;4.450;2023-02-15T05:06:42;102624.28;;;-0.78;100.00
69836;BME280;57132;51.972;4.450;2023-02-15T05:09:07;102619.91;;;-0.75;100.00
69836;BME280;57132;51.972;4.450;2023-02-15T05:11:32;102609.41;;;-0.71;100.00
69836;BME280;57132;51.972;4.450;2023-02-15T05:13:58;102611.16;;;-0.72;100.00
69836;BME280;57132;51.972;4.450;2023-02-15T05:16:23;102605.94;;;-0.72;100.00
69836;BME280;57132;51.972;4.450;2023-02-15T05:18:48;102605.09;;;-0.71;100.00
69836;BME280;57132;51.972;4.450;2023-02-15T05:21:14;102603.31;;;-0.67;100.00
69836;BME280;57132;51.972;4.450;2023-02-15T05:23:41;102601.59;;;-0.65;100.00
69836;BME280;57132;51.972;4.450;2023-02-15T05:26:10;102600.72;;;-0.64;100.00
69836;BME280;57132;51.972;4.450;2023-02-15T05:28:54;102599.84;;;-0.65;100.00
69836;BME280;57132;51.972;4.450;2023-02-15T05:31:19;102599.84;;;-0.65;100.00
69836;BME280;57132;51.972;4.450;2023-02-15T05:33:45;102596.34;;;-0.65;100.00
69836;BME280;57132;51.972;4.450;2023-02-15T05:36:11;102598.09;;;-0.66;100.00
69836;BME280;57132;51.972;4.450;2023-02-15T05:38:36;102587.59;;;-0.64;100.00
69836;BME280;57132;51.972;4.450;2023-02-15T05:41:06;102591.97;;;-0.65;100.00
69836;BME280;57132;51.972;4.450;2023-02-15T05:43:31;102580.63;;;-0.67;100.00
69836;BME280;57132;51.972;4.450;2023-02-15T05:45:58;102589.34;;;-0.65;100.00
69836;BME280;57132;51.972;4.450;2023-02-15T05:48:25;102590.25;;;-0.63;100.00
69836;BME280;57132;51.972;4.450;2023-02-15T05:51:05;102589.38;;;-0.62;100.00
69836;BME280;57132;51.972;4.450;2023-02-15T05:53:33;102598.09;;;-0.60;100.00
69836;BME280;57132;51.972;4.450;2023-02-15T05:55:59;102585.91;;;-0.59;100.00
69836;BME280;57132;51.972;4.450;2023-02-15T05:58:26;102582.41;;;-0.58;100.00
69836;BME280;57132;51.972;4.450;2023-02-15T06:00:52;102584.16;;;-0.59;100.00
69836;BME280;57132;51.972;4.450;2023-02-15T06:03:17;102585.00;;;-0.63;100.00
69836;BME280;57132;51.972;4.450;2023-02-15T06:05:42;102578.84;;;-0.68;100.00
69836;BME280;57132;51.972;4.450;2023-02-15T06:08:08;102578.84;;;-0.69;100.00
69836;BME280;57132;51.972;4.450;2023-02-15T06:10:33;102575.38;;;-0.70;100.00
69836;BME280;57132;51.972;4.450;2023-02-15T06:12:59;102570.09;;;-0.73;100.00
69836;BME280;57132;51.972;4.450;2023-02-15T06:15:26;102569.22;;;-0.73;100.00
69836;BME280;57132;51.972;4.450;2023-02-15T06:17:51;102570.97;;;-0.72;100.00
69836;BME280;57132;51.972;4.450;2023-02-15T06:20:16;102579.72;;;-0.69;100.00
69836;BME280;57132;51.972;4.450;2023-02-15T06:22:42;102583.25;;;-0.65;100.00
69836;BME280;57132;51.972;4.450;2023-02-15T06:25:07;102588.47;;;-0.65;100.00
69836;BME280;57132;51.972;4.450;2023-02-15T06:27:35;102589.34;;;-0.65;100.00
69836;BME280;57132;51.972;4.450;2023-02-15T06:30:01;102586.72;;;-0.65;100.00
69836;BME280;57132;51.972;4.450;2023-02-15T06:32:26;102584.13;;;-0.65;100.00
69836;BME280;57132;51.972;4.450;2023-02-15T06:34:52;102587.63;;;-0.63;100.00
69836;BME280;57132;51.972;4.450;2023-02-15T06:37:17;102586.75;;;-0.60;100.00
69836;BME280;57132;51.972;4.450;2023-02-15T06:39:42;102585.88;;;-0.61;100.00
69836;BME280;57132;51.972;4.450;2023-02-15T06:42:10;102582.38;;;-0.63;100.00
69836;BME280;57132;51.972;4.450;2023-02-15T06:44:37;102576.28;;;-0.63;100.00
69836;BME280;57132;51.972;4.450;2023-02-15T06:47:02;102580.63;;;-0.62;100.00
69836;BME280;57132;51.972;4.450;2023-02-15T06:49:27;102584.13;;;-0.63;100.00
69836;BME280;57132;51.972;4.450;2023-02-15T06:51:53;102582.38;;;-0.63;100.00
69836;BME280;57132;51.972;4.450;2023-02-15T06:54:18;102584.13;;;-0.62;100.00
69836;BME280;57132;51.972;4.450;2023-02-15T06:56:43;102579.75;;;-0.61;100.00
69836;BME280;57132;51.972;4.450;2023-02-15T06:59:09;102582.38;;;-0.60;100.00
69836;BME280;57132;51.972;4.450;2023-02-15T07:01:36;102576.28;;;-0.57;100.00
69836;BME280;57132;51.972;4.450;2023-02-15T07:04:02;102575.41;;;-0.55;100.00
69836;BME280;57132;51.972;4.450;2023-02-15T07:06:31;102580.69;;;-0.42;100.00
69836;BME280;57132;51.972;4.450;2023-02-15T07:08:56;102577.22;;;-0.29;100.00
69836;BME280;57132;51.972;4.450;2023-02-15T07:11:22;102573.72;;;-0.25;100.00
69836;BME280;57132;51.972;4.450;2023-02-15T07:14:06;102571.97;;;-0.20;100.00
69836;BME280;57132;51.972;4.450;2023-02-15T07:16:31;102572.00;;;-0.18;100.00
69836;BME280;57132;51.972;4.450;2023-02-15T07:18:56;102580.72;;;-0.16;100.00
69836;BME280;57132;51.972;4.450;2023-02-15T07:21:22;102571.13;;;-0.13;100.00
69836;BME280;57132;51.972;4.450;2023-02-15T07:23:47;102576.38;;;-0.05;100.00
69836;BME280;57132;51.972;4.450;2023-02-15T07:26:12;102566.78;;;0.09;100.00
69836;BME280;57132;51.972;4.450;2023-02-15T07:28:38;102565.88;;;0.19;100.00
69836;BME280;57132;51.972;4.450;2023-02-15T07:31:04;102571.16;;;0.29;100.00
69836;BME280;57132;51.972;4.450;2023-02-15T07:33:31;102571.13;;;0.38;100.00
69836;BME280;57132;51.972;4.450;2023-02-15T07:35:58;102564.13;;;0.43;100.00
69836;BME280;57132;51.972;4.450;2023-02-15T07:38:25;102568.50;;;0.52;100.00
69836;BME280;57132;51.972;4.450;2023-02-15T07:40:51;102564.97;;;0.62;100.00
69836;BME280;57132;51.972;4.450;2023-02-15T07:43:17;102561.44;;;0.75;100.00
69836;BME280;57132;51.972;4.450;2023-02-15T07:45:43;102557.91;;;0.87;100.00
69836;BME280;57132;51.972;4.450;2023-02-15T07:48:08;102559.63;;;0.97;100.00
69836;BME280;57132;51.972;4.450;2023-02-15T07:50:33;102549.97;;;1.05;100.00
69836;BME280;57132;51.972;4.450;2023-02-15T07:53:01;102550.81;;;1.13;100.00
69836;BME280;57132;51.972;4.450;2023-02-15T07:55:27;102554.25;;;1.25;100.00
69836;BME280;57132;51.972;4.450;2023-02-15T07:57:52;102552.44;;;1.37;100.00
69836;BME280;57132;51.972;4.450;2023-02-15T08:00:20;102551.50;;;1.49;100.00
69836;BME280;57132;51.972;4.450;2023-02-15T08:02:51;102544.44;;;1.60;100.00
69836;BME280;57132;51.972;4.450;2023-02-15T08:05:38;102545.25;;;1.68;100.00
69836;BME280;57132;51.972;4.450;2023-02-15T08:08:04;102546.09;;;1.75;100.00
69836;BME280;57132;51.972;4.450;2023-02-15T08:10:30;102545.19;;;1.82;100.00
69836;BME280;57132;51.972;4.450;2023-02-15T08:13:14;102543.31;;;1.95;100.00
69836;BME280;57132;51.972;4.450;2023-02-15T08:15:39;102544.06;;;2.09;100.00
69836;BME280;57132;51.972;4.450;2023-02-15T08:18:05;102543.94;;;2.21;100.00
69836;BME280;57132;51.972;4.450;2023-02-15T08:20:30;102543.88;;;2.32;100.00
69836;BME280;57132;51.972;4.450;2023-02-15T08:22:56;102542.03;;;2.42;100.00
69836;BME280;57132;51.972;4.450;2023-02-15T08:25:21;102543.69;;;2.49;100.00
69836;BME280;57132;51.972;4.450;2023-02-15T08:27:46;102540.16;;;2.53;100.00
69836;BME280;57132;51.972;4.450;2023-02-15T08:30:12;102542.75;;;2.58;100.00
69836;BME280;57132;51.972;4.450;2023-02-15T08:32:39;102546.22;;;2.63;100.00
69836;BME280;57132;51.972;4.450;2023-02-15T08:35:04;102538.22;;;2.69;100.00
69836;BME280;57132;51.972;4.450;2023-02-15T08:37:30;102533.75;;;2.76;100.00
69836;BME280;57132;51.972;4.450;2023-02-15T08:39:55;102536.28;;;2.85;100.00
69836;BME280;57132;51.972;4.450;2023-02-15T08:42:20;102530.06;;;2.93;100.00
69836;BME280;57132;51.972;4.450;2023-02-15T08:44:46;102536.91;;;3.07;100.00
69836;BME280;57132;51.972;4.450;2023-02-15T08:47:11;102541.13;;;3.20;100.00
69836;BME280;57132;51.972;4.450;2023-02-15T08:49:37;102548.03;;;3.32;100.00
69836;BME280;57132;51.972;4.450;2023-02-15T08:52:02;102550.56;;;3.41;100.00
69836;BME280;57132;51.972;4.450;2023-02-15T08:54:28;102550.53;;;3.42;100.00
69836;BME280;57132;51.972;4.450;2023-02-15T08:56:53;102558.41;;;3.44;100.00
69836;BME280;57132;51.972;4.450;2023-02-15T08:59:21;102546.09;;;3.46;100.00
69836;BME280;57132;51.972;4.450;2023-02-15T09:01:48;102549.47;;;3.56;100.00
69836;BME280;57132;51.972;4.450;2023-02-15T09:04:14;102550.13;;;3.70;100.00
69836;BME280;57132;51.972;4.450;2023-02-15T09:06:41;102556.09;;;3.84;100.00
69836;BME280;57132;51.972;4.450;2023-02-15T09:09:08;102553.19;;;4.01;100.00
69836;BME280;57132;51.972;4.450;2023-02-15T09:11:37;102559.00;;;4.22;100.00
69836;BME280;57132;51.972;4.450;2023-02-15T09:14:08;102555.22;;;4.38;100.00
69836;BME280;57132;51.972;4.450;2023-02-15T09:16:35;102552.44;;;4.46;100.00
69836;BME280;57132;51.972;4.450;2023-02-15T09:19:04;102547.63;;;4.67;100.00
69836;BME280;57132;51.972;4.450;2023-02-15T09:21:30;102543.06;;;4.74;100.00
69836;BME280;57132;51.972;4.450;2023-02-15T09:24:17;102547.94;;;4.97;100.00
69836;BME280;57132;51.972;4.450;2023-02-15T09:26:46;102543.25;;;5.10;100.00
69836;BME280;57132;51.972;4.450;2023-02-15T09:29:13;102538.66;;;5.20;100.00
69836;BME280;57132;51.972;4.450;2023-02-15T09:31:41;102537.44;;;5.34;100.00
69836;BME280;57132;51.972;4.450;2023-02-15T09:34:09;102531.69;;;5.54;100.00
69836;BME280;57132;51.972;4.450;2023-02-15T09:36:37;102526.03;;;5.71;100.00
69836;BME280;57132;51.972;4.450;2023-02-15T09:39:16;102520.13;;;5.97;100.00
69836;BME280;57132;51.972;4.450;2023-02-15T09:47:42;102521.66;;;6.73;100.00
69836;BME280;57132;51.972;4.450;2023-02-15T09:50:23;102526.38;;;6.94;100.00
69836;BME280;57132;51.972;4.450;2023-02-15T10:11:17;102524.34;;;7.33;100.00
69836;BME280;57132;51.972;4.450;2023-02-15T10:14:26;102530.50;;;7.63;100.00
69836;BME280;57132;51.972;4.450;2023-02-15T10:20:14;102522.31;;;8.24;100.00
69836;BME280;57132;51.972;4.450;2023-02-15T10:28:15;102528.47;;;9.01;92.99
69836;BME280;57132;51.972;4.450;2023-02-15T10:46:34;102508.47;;;11.04;80.52
69836;BME280;57132;51.972;4.450;2023-02-15T10:55:06;102490.66;;;12.33;72.84
69836;BME280;57132;51.972;4.450;2023-02-15T10:58:03;102491.03;;;12.42;68.22
69836;BME280;57132;51.972;4.450;2023-02-15T11:00:53;102490.56;;;12.34;68.86
69836;BME280;57132;51.972;4.450;2023-02-15T11:06:11;102489.28;;;11.89;67.45
69836;BME280;57132;51.972;4.450;2023-02-15T11:08:50;102492.25;;;11.83;69.27
69836;BME280;57132;51.972;4.450;2023-02-15T11:11:23;102499.66;;;11.95;70.08
69836;BME280;57132;51.972;4.450;2023-02-15T11:13:56;102501.09;;;12.02;68.79
69836;BME280;57132;51.972;4.450;2023-02-15T11:16:30;102489.72;;;11.80;70.38
69836;BME280;57132;51.972;4.450;2023-02-15T11:19:10;102477.47;;;12.11;70.02
69836;BME280;57132;51.972;4.450;2023-02-15T11:21:40;102479.16;;;12.13;67.52
69836;BME280;57132;51.972;4.450;2023-02-15T11:24:13;102476.41;;;11.78;69.11
69836;BME280;57132;51.972;4.450;2023-02-15T11:26:43;102480.41;;;11.89;68.65
69836;BME280;57132;51.972;4.450;2023-02-15T11:29:25;102487.47;;;11.71;69.81
69836;BME280;57132;51.972;4.450;2023-02-15T11:31:59;102482.19;;;11.33;72.10
69836;BME280;57132;51.972;4.450;2023-02-15T11:34:44;102483.69;;;11.20;74.15
69836;BME280;57132;51.972;4.450;2023-02-15T11:37:18;102476.53;;;10.82;74.26
69836;BME280;57132;51.972;4.450;2023-02-15T11:39:45;102471.81;;;10.69;75.03
69836;BME280;57132;51.972;4.450;2023-02-15T11:42:19;102465.84;;;10.21;77.11
69836;BME280;57132;51.972;4.450;2023-02-15T11:45:04;102458.81;;;10.41;78.02
69836;BME280;57132;51.972;4.450;2023-02-15T11:47:32;102453.22;;;10.86;77.99
69836;BME280;57132;51.972;4.450;2023-02-15T11:49:59;102449.75;;;11.22;77.21
69836;BME280;57132;51.972;4.450;2023-02-15T11:52:25;102450.75;;;11.19;72.60
69836;BME280;57132;51.972;4.450;2023-02-15T11:54:51;102442.19;;;10.94;74.64
69836;BME280;57132;51.972;4.450;2023-02-15T11:57:25;102445.31;;;10.64;76.95
69836;BME280;57132;51.972;4.450;2023-02-15T12:00:02;102454.78;;;10.71;77.20
69836;BME280;57132;51.972;4.450;2023-02-15T12:02:31;102450.66;;;10.64;77.79
69836;BME280;57132;51.972;4.450;2023-02-15T12:05:03;102454.16;;;10.46;79.30
69836;BME280;57132;51.972;4.450;2023-02-15T12:07:36;102454.72;;;10.33;79.77
69836;BME280;57132;51.972;4.450;2023-02-15T12:10:23;102441.72;;;10.65;79.23
69836;BME280;57132;51.972;4.450;2023-02-15T12:13:09;102449.75;;;10.65;80.16
69836;BME280;57132;51.972;4.450;2023-02-15T12:15:34;102438.31;;;10.62;78.49
69836;BME280;57132;51.972;4.450;2023-02-15T12:18:02;102430.41;;;10.79;78.80
69836;BME280;57132;51.972;4.450;2023-02-15T12:20:31;102436.75;;;10.95;77.56
69836;BME280;57132;51.972;4.450;2023-02-15T12:23:08;102443.69;;;10.99;76.33
69836;BME280;57132;51.972;4.450;2023-02-15T12:25:41;102437.47;;;11.37;75.84
69836;BME280;57132;51.972;4.450;2023-02-15T12:28:34;102438.00;;;11.43;73.77
69836;BME280;57132;51.972;4.450;2023-02-15T12:31:03;102433.75;;;11.39;75.14
69836;BME280;57132;51.972;4.450;2023-02-15T12:33:35;102436.53;;;11.19;75.12
69836;BME280;57132;51.972;4.450;2023-02-15T12:36:20;102427.28;;;10.88;77.28
69836;BME280;57132;51.972;4.450;2023-02-15T12:41:27;102426.47;;;10.67;80.42
69836;BME280;57132;51.972;4.450;2023-02-15T12:44:09;102420.72;;;10.76;80.17
69836;BME280;57132;51.972;4.450;2023-02-15T12:46:40;102431.19;;;10.62;79.78
69836;BME280;57132;51.972;4.450;2023-02-15T12:56:43;102425.28;;;10.74;80.01
69836;BME280;57132;51.972;4.450;2023-02-15T12:59:13;102423.44;;;10.56;79.98
69836;BME280;57132;51.972;4.450;2023-02-15T13:01:40;102410.28;;;10.51;81.52
69836;BME280;57132;51.972;4.450;2023-02-15T13:04:20;102411.25;;;10.50;83.58
69836;BME280;57132;51.972;4.450;2023-02-15T13:06:52;102408.69;;;10.47;85.10
69836;BME280;57132;51.972;4.450;2023-02-15T13:11:56;102401.59;;;10.27;86.09
69836;BME280;57132;51.972;4.450;2023-02-15T13:14:30;102392.16;;;10.19;86.88
69836;BME280;57132;51.972;4.450;2023-02-15T13:17:00;102399.22;;;10.20;87.49
69836;BME280;57132;51.972;4.450;2023-02-15T13:22:12;102392.97;;;10.00;90.17
69836;BME280;57132;51.972;4.450;2023-02-15T13:24:41;102393.16;;;9.96;89.77
69836;BME280;57132;51.972;4.450;2023-02-15T13:27:13;102387.91;;;9.94;90.63
69836;BME280;57132;51.972;4.450;2023-02-15T13:29:43;102387.00;;;9.94;88.41
69836;BME280;57132;51.972;4.450;2023-02-15T13:34:47;102384.22;;;9.97;87.66
69836;BME280;57132;51.972;4.450;2023-02-15T13:37:25;102373.84;;;9.91;87.47
69836;BME280;57132;51.972;4.450;2023-02-15T13:40:08;102369.16;;;9.96;87.57
69836;BME280;57132;51.972;4.450;2023-02-15T13:42:40;102380.88;;;10.12;87.71
69836;BME280;57132;51.972;4.450;2023-02-15T13:48:26;102373.41;;;10.41;83.84
69836;BME280;57132;51.972;4.450;2023-02-15T13:51:38;102365.63;;;10.55;82.62
69836;BME280;57132;51.972;4.450;2023-02-15T13:57:06;102352.47;;;10.88;81.07
69836;BME280;57132;51.972;4.450;2023-02-15T14:02:55;102352.78;;;11.54;79.95
69836;BME280;57132;51.972;4.450;2023-02-15T14:05:29;102352.03;;;11.87;77.48
69836;BME280;57132;51.972;4.450;2023-02-15T14:16:03;102353.97;;;11.66;75.31
69836;BME280;57132;51.972;4.450;2023-02-15T14:32:14;102357.81;;;10.88;79.41
69836;BME280;57132;51.972;4.450;2023-02-15T14:34:59;102361.44;;;10.87;77.74
69836;BME280;57132;51.972;4.450;2023-02-15T14:46:33;102362.16;;;10.14;83.40
69836;BME280;57132;51.972;4.450;2023-02-15T14:49:24;102360.53;;;10.09;85.03
69836;BME280;57132;51.972;4.450;2023-02-15T15:02:24;102355.22;;;9.89;88.68
69836;BME280;57132;51.972;4.450;2023-02-15T15:05:18;102353.78;;;9.82;90.44
69836;BME280;57132;51.972;4.450;2023-02-15T15:07:55;102350.22;;;9.81;92.02
69836;BME280;57132;51.972;4.450;2023-02-15T15:12:52;102349.63;;;9.75;93.95
69836;BME280;57132;51.972;4.450;2023-02-15T15:37:09;102339.28;;;9.67;91.86
69836;BME280;57132;51.972;4.450;2023-02-15T15:43:24;102323.00;;;9.53;92.19
69836;BME280;57132;51.972;4.450;2023-02-15T15:46:10;102323.13;;;9.50;92.91
69836;BME280;57132;51.972;4.450;2023-02-15T15:48:40;102318.06;;;9.44;93.33
69836;BME280;57132;51.972;4.450;2023-02-15T15:51:26;102318.41;;;9.36;93.35
69836;BME280;57132;51.972;4.450;2023-02-15T15:53:54;102325.88;;;9.26;93.50
69836;BME280;57132;51.972;4.450;2023-02-15T15:56:27;102327.69;;;9.26;94.34
69836;BME280;57132;51.972;4.450;2023-02-15T15:59:02;102321.63;;;9.22;94.96